sensor_id;sensor_type;location;lat;lon;timestamp;pressure;altitude;pressure_sealevel;temperature;humidity
32733;BME280;11867;51.198;11.966;2023-05-11T00:00:49;100235.66;;;14.86;100.00
32733;BME280;11867;51.198;11.966;2023-05-11T00:02:12;100242.44;;;14.16;100.00
32733;BME280;11867;51.198;11.966;2023-05-11T00:03:34;100242.97;;;14.04;100.00
32733;BME280;11867;51.198;11.966;2023-05-11T00:04:57;100242.03;;;14.22;100.00
32733;BME280;11867;51.198;11.966;2023-05-11T00:06:22;100240.25;;;14.40;100.00
32733;BME280;11867;51.198;11.966;2023-05-11T00:07:44;100238.50;;;14.58;100.00
32733;BME280;11867;51.198;11.966;2023-05-11T00:09:06;100239.78;;;14.75;100.00
32733;BME280;11867;51.198;11.966;2023-05-11T00:10:30;100239.28;;;14.72;100.00
32733;BME280;11867;51.198;11.966;2023-05-11T00:11:52;100232.75;;;14.82;100.00
32733;BME280;11867;51.198;11.966;2023-05-11T00:13:14;100238.34;;;14.77;100.00
32733;BME280;11867;51.198;11.966;2023-05-11T00:14:37;100244.63;;;14.78;100.00
32733;BME280;11867;51.198;11.966;2023-05-11T00:16:00;100238.84;;;14.79;100.00
32733;BME280;11867;51.198;11.966;2023-05-11T00:17:24;100242.53;;;14.75;100.00
32733;BME280;11867;51.198;11.966;2023-05-11T00:18:47;100235.78;;;14.81;100.00
32733;BME280;11867;51.198;11.966;2023-05-11T00:20:10;100237.34;;;14.73;100.00
32733;BME280;11867;51.198;11.966;2023-05-11T00:21:34;100238.09;;;14.87;100.00
32733;BME280;11867;51.198;11.966;2023-05-11T00:22:56;100233.16;;;14.98;100.00
32733;BME280;11867;51.198;11.966;2023-05-11T00:24:19;100234.91;;;14.94;100.00
32733;BME280;11867;51.198;11.966;2023-05-11T00:25:41;100233.59;;;14.91;100.00
32733;BME280;11867;51.198;11.966;2023-05-11T00:27:03;100230.28;;;15.03;100.00
32733;BME280;11867;51.198;11.966;2023-05-11T00:28:26;100230.16;;;15.08;100.00
32733;BME280;11867;51.198;11.966;2023-05-11T00:29:48;100229.31;;;14.99;100.00
32733;BME280;11867;51.198;11.966;2023-05-11T00:31:11;100229.06;;;14.87;100.00
32733;BME280;11867;51.198;11.966;2023-05-11T00:32:33;100224.88;;;14.89;100.00
32733;BME280;11867;51.198;11.966;2023-05-11T00:33:56;100227.75;;;15.07;100.00
32733;BME280;11867;51.198;11.966;2023-05-11T00:35:19;100229.31;;;14.99;100.00
32733;BME280;11867;51.198;11.966;2023-05-11T00:36:43;100221.25;;;14.58;100.00
32733;BME280;11867;51.198;11.966;2023-05-11T00:38:06;100226.09;;;14.61;100.00
32733;BME280;11867;51.198;11.966;2023-05-11T00:39:28;100228.75;;;14.88;100.00
32733;BME280;11867;51.198;11.966;2023-05-11T00:40:50;100232.75;;;15.05;100.00
32733;BME280;11867;51.198;11.966;2023-05-11T00:42:13;100226.84;;;15.20;100.00
32733;BME280;11867;51.198;11.966;2023-05-11T00:43:35;100223.44;;;15.23;100.00
32733;BME280;11867;51.198;11.966;2023-05-11T00:44:58;100223.44;;;15.23;100.00
32733;BME280;11867;51.198;11.966;2023-05-11T00:46:21;100226.78;;;15.11;100.00
32733;BME280;11867;51.198;11.966;2023-05-11T00:47:44;100225.06;;;14.93;100.00
32733;BME280;11867;51.198;11.966;2023-05-11T00:49:07;100214.63;;;14.59;100.00
32733;BME280;11867;51.198;11.966;2023-05-11T00:50:30;100222.34;;;14.57;100.00
32733;BME280;11867;51.198;11.966;2023-05-11T00:51:54;100225.84;;;14.71;100.00
32733;BME280;11867;51.198;11.966;2023-05-11T00:53:18;100225.38;;;14.91;100.00
32733;BME280;11867;51.198;11.966;2023-05-11T00:54:40;100217.25;;;15.09;100.00
32733;BME280;11867;51.198;11.966;2023-05-11T00:56:03;100215.44;;;15.04;100.00
32733;BME280;11867;51.198;11.966;2023-05-11T00:57:26;100218.41;;;15.17;100.00
32733;BME280;11867;51.198;11.966;2023-05-11T00:58:48;100220.31;;;15.07;100.00
32733;BME280;11867;51.198;11.966;2023-05-11T01:00:12;100211.78;;;14.64;100.00
32733;BME280;11867;51.198;11.966;2023-05-11T01:01:37;100217.06;;;14.60;100.00
32733;BME280;11867;51.198;11.966;2023-05-11T01:03:00;100217.91;;;13.97;100.00
32733;BME280;11867;51.198;11.966;2023-05-11T01:04:22;100217.88;;;13.41;100.00
32733;BME280;11867;51.198;11.966;2023-05-11T01:05:51;100225.63;;;13.06;100.00
32733;BME280;11867;51.198;11.966;2023-05-11T01:07:18;100213.06;;;13.19;100.00
32733;BME280;11867;51.198;11.966;2023-05-11T01:08:45;100214.44;;;13.49;100.00
32733;BME280;11867;51.198;11.966;2023-05-11T01:10:14;100223.69;;;13.81;100.00
32733;BME280;11867;51.198;11.966;2023-05-11T01:11:42;100215.97;;;13.97;100.00
32733;BME280;11867;51.198;11.966;2023-05-11T01:13:15;100210.69;;;13.87;100.00
32733;BME280;11867;51.198;11.966;2023-05-11T01:14:41;100211.63;;;13.82;100.00
32733;BME280;11867;51.198;11.966;2023-05-11T01:16:12;100216.78;;;13.70;100.00
32733;BME280;11867;51.198;11.966;2023-05-11T01:17:43;100218.63;;;13.75;100.00
32733;BME280;11867;51.198;11.966;2023-05-11T01:19:15;100211.91;;;13.39;100.00
32733;BME280;11867;51.198;11.966;2023-05-11T01:20:43;100220.78;;;13.17;100.00
32733;BME280;11867;51.198;11.966;2023-05-11T01:22:18;100210.50;;;13.42;100.00
32733;BME280;11867;51.198;11.966;2023-05-11T01:24:11;100207.66;;;13.61;100.00
32733;BME280;11867;51.198;11.966;2023-05-11T01:25:52;100214.75;;;13.76;100.00
32733;BME280;11867;51.198;11.966;2023-05-11T01:31:07;100212.19;;;14.57;100.00
32733;BME280;11867;51.198;11.966;2023-05-11T01:32:31;100211.50;;;14.51;100.00
32733;BME280;11867;51.198;11.966;2023-05-11T01:34:00;100212.44;;;14.69;100.00
32733;BME280;11867;51.198;11.966;2023-05-11T01:35:24;100212.19;;;14.80;100.00
32733;BME280;11867;51.198;11.966;2023-05-11T01:36:50;100214.19;;;14.88;100.00
32733;BME280;11867;51.198;11.966;2023-05-11T01:38:14;100216.03;;;14.70;100.00
32733;BME280;11867;51.198;11.966;2023-05-11T01:39:48;100221.75;;;14.46;100.00
32733;BME280;11867;51.198;11.966;2023-05-11T01:41:12;100214.53;;;14.64;100.00
32733;BME280;11867;51.198;11.966;2023-05-11T01:42:39;100218.19;;;14.82;100.00
32733;BME280;11867;51.198;11.966;2023-05-11T01:44:05;100225.50;;;14.86;100.00
32733;BME280;11867;51.198;11.966;2023-05-11T01:45:32;100224.88;;;14.89;100.00
32733;BME280;11867;51.198;11.966;2023-05-11T01:46:59;100228.16;;;15.00;100.00
32733;BME280;11867;51.198;11.966;2023-05-11T01:48:24;100221.63;;;14.87;100.00
32733;BME280;11867;51.198;11.966;2023-05-11T01:49:49;100222.56;;;15.05;100.00
32733;BME280;11867;51.198;11.966;2023-05-11T01:51:14;100222.00;;;14.72;100.00
32733;BME280;11867;51.198;11.966;2023-05-11T01:52:39;100225.91;;;14.57;100.00
32733;BME280;11867;51.198;11.966;2023-05-11T01:54:03;100221.50;;;14.70;100.00
32733;BME280;11867;51.198;11.966;2023-05-11T01:55:30;100221.44;;;14.84;100.00
32733;BME280;11867;51.198;11.966;2023-05-11T01:56:54;100219.88;;;14.91;100.00
32733;BME280;11867;51.198;11.966;2023-05-11T01:58:18;100218.38;;;14.85;100.00
32733;BME280;11867;51.198;11.966;2023-05-11T01:59:41;100224.66;;;15.08;100.00
32733;BME280;11867;51.198;11.966;2023-05-11T02:01:06;100225.38;;;15.23;100.00
32733;BME280;11867;51.198;11.966;2023-05-11T02:02:33;100226.25;;;15.32;100.00
32733;BME280;11867;51.198;11.966;2023-05-11T02:03:57;100229.50;;;15.34;100.00
32733;BME280;11867;51.198;11.966;2023-05-11T02:05:25;100229.28;;;15.22;100.00
32733;BME280;11867;51.198;11.966;2023-05-11T02:06:47;100226.41;;;14.82;100.00
32733;BME280;11867;51.198;11.966;2023-05-11T02:08:12;100219.88;;;14.91;100.00
32733;BME280;11867;51.198;11.966;2023-05-11T02:09:35;100219.50;;;14.84;100.00
32733;BME280;11867;51.198;11.966;2023-05-11T02:10:59;100221.19;;;14.94;100.00
32733;BME280;11867;51.198;11.966;2023-05-11T02:12:24;100221.00;;;14.90;100.00
32733;BME280;11867;51.198;11.966;2023-05-11T02:13:48;100223.31;;;14.75;100.00
32733;BME280;11867;51.198;11.966;2023-05-11T02:15:12;100227.81;;;14.70;100.00
32733;BME280;11867;51.198;11.966;2023-05-11T02:16:37;100225.59;;;14.45;100.00
32733;BME280;11867;51.198;11.966;2023-05-11T02:18:02;100222.38;;;14.43;100.00
32733;BME280;11867;51.198;11.966;2023-05-11T02:19:25;100223.66;;;14.09;100.00
32733;BME280;11867;51.198;11.966;2023-05-11T02:20:50;100219.59;;;14.20;100.00
32733;BME280;11867;51.198;11.966;2023-05-11T02:22:12;100226.59;;;14.49;100.00
32733;BME280;11867;51.198;11.966;2023-05-11T02:23:36;100220.88;;;14.73;100.00
32733;BME280;11867;51.198;11.966;2023-05-11T02:24:58;100223.25;;;14.88;100.00
32733;BME280;11867;51.198;11.966;2023-05-11T02:26:21;100219.31;;;15.03;100.00
32733;BME280;11867;51.198;11.966;2023-05-11T02:27:43;100221.66;;;15.19;100.00
32733;BME280;11867;51.198;11.966;2023-05-11T02:29:06;100217.16;;;15.23;100.00
32733;BME280;11867;51.198;11.966;2023-05-11T02:30:30;100216.53;;;15.26;100.00
32733;BME280;11867;51.198;11.966;2023-05-11T02:31:56;100223.72;;;15.13;100.00
32733;BME280;11867;51.198;11.966;2023-05-11T02:33:25;100214.72;;;15.21;100.00
32733;BME280;11867;51.198;11.966;2023-05-11T02:34:54;100224.41;;;15.19;100.00
32733;BME280;11867;51.198;11.966;2023-05-11T02:36:21;100220.22;;;15.21;100.00
32733;BME280;11867;51.198;11.966;2023-05-11T02:37:45;100224.00;;;15.34;100.00
32733;BME280;11867;51.198;11.966;2023-05-11T02:39:09;100225.69;;;15.21;100.00
32733;BME280;11867;51.198;11.966;2023-05-11T02:40:45;100212.41;;;15.14;100.00
32733;BME280;11867;51.198;11.966;2023-05-11T02:42:13;100216.84;;;15.24;100.00
32733;BME280;11867;51.198;11.966;2023-05-11T02:43:38;100221.09;;;15.30;100.00
32733;BME280;11867;51.198;11.966;2023-05-11T02:45:06;100213.69;;;15.40;100.00
32733;BME280;11867;51.198;11.966;2023-05-11T02:46:32;100208.53;;;15.38;100.00
32733;BME280;11867;51.198;11.966;2023-05-11T02:47:57;100217.88;;;15.37;100.00
32733;BME280;11867;51.198;11.966;2023-05-11T02:49:22;100204.00;;;15.42;100.00
32733;BME280;11867;51.198;11.966;2023-05-11T02:50:50;100210.72;;;15.27;100.00
32733;BME280;11867;51.198;11.966;2023-05-11T02:52:13;100210.59;;;15.32;100.00
32733;BME280;11867;51.198;11.966;2023-05-11T02:53:39;100215.53;;;15.22;100.00
32733;BME280;11867;51.198;11.966;2023-05-11T02:55:02;100213.53;;;15.36;100.00
32733;BME280;11867;51.198;11.966;2023-05-11T02:56:26;100210.63;;;15.41;100.00
32733;BME280;11867;51.198;11.966;2023-05-11T02:57:48;100207.41;;;15.48;100.00
32733;BME280;11867;51.198;11.966;2023-05-11T02:59:13;100213.59;;;15.22;100.00
32733;BME280;11867;51.198;11.966;2023-05-11T03:00:37;100208.16;;;15.31;100.00
32733;BME280;11867;51.198;11.966;2023-05-11T03:02:00;100207.91;;;15.19;100.00
32733;BME280;11867;51.198;11.966;2023-05-11T03:03:23;100206.03;;;15.28;100.00
32733;BME280;11867;51.198;11.966;2023-05-11T03:04:47;100203.66;;;15.35;100.00
32733;BME280;11867;51.198;11.966;2023-05-11T03:06:09;100205.44;;;15.40;100.00
32733;BME280;11867;51.198;11.966;2023-05-11T03:07:32;100203.53;;;15.40;100.00
32733;BME280;11867;51.198;11.966;2023-05-11T03:08:55;100208.53;;;15.38;100.00
32733;BME280;11867;51.198;11.966;2023-05-11T03:10:17;100210.13;;;15.39;100.00
32733;BME280;11867;51.198;11.966;2023-05-11T03:11:41;100213.09;;;15.20;100.00
32733;BME280;11867;51.198;11.966;2023-05-11T03:13:04;100199.22;;;15.25;100.00
32733;BME280;11867;51.198;11.966;2023-05-11T03:14:29;100204.34;;;15.09;100.00
32733;BME280;11867;51.198;11.966;2023-05-11T03:15:53;100207.97;;;15.27;100.00
32733;BME280;11867;51.198;11.966;2023-05-11T03:17:16;100207.56;;;15.43;100.00
32733;BME280;11867;51.198;11.966;2023-05-11T03:18:40;100208.41;;;15.52;100.00
32733;BME280;11867;51.198;11.966;2023-05-11T03:20:06;100204.72;;;15.57;100.00
32733;BME280;11867;51.198;11.966;2023-05-11T03:21:29;100196.97;;;15.59;100.00
32733;BME280;11867;51.198;11.966;2023-05-11T03:22:53;100197.31;;;15.66;100.00
32733;BME280;11867;51.198;11.966;2023-05-11T03:24:17;100203.03;;;15.38;100.00
32733;BME280;11867;51.198;11.966;2023-05-11T03:25:40;100204.22;;;15.23;100.00
32733;BME280;11867;51.198;11.966;2023-05-11T03:27:05;100201.88;;;15.39;100.00
32733;BME280;11867;51.198;11.966;2023-05-11T03:28:30;100203.25;;;15.50;100.00
32733;BME280;11867;51.198;11.966;2023-05-11T03:29:54;100203.38;;;15.45;100.00
32733;BME280;11867;51.198;11.966;2023-05-11T03:31:18;100199.50;;;15.46;100.00
32733;BME280;11867;51.198;11.966;2023-05-11T03:32:40;100205.00;;;15.46;100.00
32733;BME280;11867;51.198;11.966;2023-05-11T03:34:03;100201.00;;;15.52;100.00
32733;BME280;11867;51.198;11.966;2023-05-11T03:35:28;100203.09;;;15.56;100.00
32733;BME280;11867;51.198;11.966;2023-05-11T03:36:53;100204.34;;;15.49;100.00
32733;BME280;11867;51.198;11.966;2023-05-11T03:38:18;100201.28;;;15.51;100.00
32733;BME280;11867;51.198;11.966;2023-05-11T03:39:45;100193.88;;;15.60;100.00
32733;BME280;11867;51.198;11.966;2023-05-11T03:41:10;100197.97;;;15.63;100.00
32733;BME280;11867;51.198;11.966;2023-05-11T03:42:36;100189.06;;;15.66;100.00
32733;BME280;11867;51.198;11.966;2023-05-11T03:44:02;100192.13;;;15.64;100.00
32733;BME280;11867;51.198;11.966;2023-05-11T03:45:27;100195.00;;;15.50;100.00
32733;BME280;11867;51.198;11.966;2023-05-11T03:46:52;100194.50;;;15.48;100.00
32733;BME280;11867;51.198;11.966;2023-05-11T03:48:16;100189.94;;;15.44;100.00
32733;BME280;11867;51.198;11.966;2023-05-11T03:49:41;100194.16;;;15.50;100.00
32733;BME280;11867;51.198;11.966;2023-05-11T03:51:05;100188.88;;;15.62;100.00
32733;BME280;11867;51.198;11.966;2023-05-11T03:52:28;100186.63;;;15.64;100.00
32733;BME280;11867;51.198;11.966;2023-05-11T03:53:51;100190.81;;;15.62;100.00
32733;BME280;11867;51.198;11.966;2023-05-11T03:55:13;100187.94;;;15.67;100.00
32733;BME280;11867;51.198;11.966;2023-05-11T03:56:38;100190.34;;;15.68;100.00
32733;BME280;11867;51.198;11.966;2023-05-11T03:58:05;100193.59;;;15.70;100.00
32733;BME280;11867;51.198;11.966;2023-05-11T03:59:28;100194.94;;;15.73;100.00
32733;BME280;11867;51.198;11.966;2023-05-11T04:00:51;100202.47;;;15.59;100.00
32733;BME280;11867;51.198;11.966;2023-05-11T04:02:13;100194.06;;;15.64;100.00
32733;BME280;11867;51.198;11.966;2023-05-11T04:03:46;100188.53;;;15.55;100.00
32733;BME280;11867;51.198;11.966;2023-05-11T04:05:11;100196.63;;;15.20;100.00
32733;BME280;11867;51.198;11.966;2023-05-11T04:06:35;100197.59;;;14.93;100.00
32733;BME280;11867;51.198;11.966;2023-05-11T04:07:58;100193.19;;;15.14;100.00
32733;BME280;11867;51.198;11.966;2023-05-11T04:09:21;100196.44;;;15.17;100.00
32733;BME280;11867;51.198;11.966;2023-05-11T04:10:44;100193.25;;;15.23;100.00
32733;BME280;11867;51.198;11.966;2023-05-11T04:12:07;100189.06;;;15.26;100.00
32733;BME280;11867;51.198;11.966;2023-05-11T04:13:29;100195.41;;;15.35;100.00
32733;BME280;11867;51.198;11.966;2023-05-11T04:14:52;100195.41;;;15.35;100.00
32733;BME280;11867;51.198;11.966;2023-05-11T04:16:15;100195.00;;;15.50;100.00
32733;BME280;11867;51.198;11.966;2023-05-11T04:17:36;100196.63;;;15.20;100.00
32733;BME280;11867;51.198;11.966;2023-05-11T04:19:00;100202.81;;;15.26;100.00
32733;BME280;11867;51.198;11.966;2023-05-11T04:20:22;100196.88;;;15.41;100.00
32733;BME280;11867;51.198;11.966;2023-05-11T04:21:46;100197.53;;;15.38;100.00
32733;BME280;11867;51.198;11.966;2023-05-11T04:23:09;100197.25;;;15.17;100.00
32733;BME280;11867;51.198;11.966;2023-05-11T04:24:32;100200.91;;;15.04;100.00
32733;BME280;11867;51.198;11.966;2023-05-11T04:25:54;100200.88;;;15.26;100.00
32733;BME280;11867;51.198;11.966;2023-05-11T04:27:17;100198.69;;;15.14;100.00
32733;BME280;11867;51.198;11.966;2023-05-11T04:28:40;100196.44;;;15.17;100.00
32733;BME280;11867;51.198;11.966;2023-05-11T04:30:02;100198.56;;;15.20;100.00
32733;BME280;11867;51.198;11.966;2023-05-11T04:31:26;100194.91;;;15.33;100.00
32733;BME280;11867;51.198;11.966;2023-05-11T04:32:47;100204.06;;;15.20;100.00
32733;BME280;11867;51.198;11.966;2023-05-11T04:34:10;100197.19;;;15.40;100.00
32733;BME280;11867;51.198;11.966;2023-05-11T04:35:32;100199.22;;;15.57;100.00
32733;BME280;11867;51.198;11.966;2023-05-11T04:36:56;100195.03;;;15.59;100.00
32733;BME280;11867;51.198;11.966;2023-05-11T04:38:20;100203.59;;;15.58;100.00
32733;BME280;11867;51.198;11.966;2023-05-11T04:39:42;100199.22;;;15.57;100.00
32733;BME280;11867;51.198;11.966;2023-05-11T04:41:06;100198.75;;;15.63;100.00
32733;BME280;11867;51.198;11.966;2023-05-11T04:42:29;100196.06;;;15.72;100.00
32733;BME280;11867;51.198;11.966;2023-05-11T04:43:52;100198.34;;;15.79;100.00
32733;BME280;11867;51.198;11.966;2023-05-11T04:45:14;100203.59;;;15.66;100.00
32733;BME280;11867;51.198;11.966;2023-05-11T04:46:36;100205.22;;;15.59;100.00
32733;BME280;11867;51.198;11.966;2023-05-11T04:47:59;100194.25;;;15.67;100.00
32733;BME280;11867;51.198;11.966;2023-05-11T04:49:22;100201.34;;;15.68;100.00
32733;BME280;11867;51.198;11.966;2023-05-11T04:50:44;100195.84;;;15.68;100.00
32733;BME280;11867;51.198;11.966;2023-05-11T04:52:08;100206.34;;;15.66;100.00
32733;BME280;11867;51.198;11.966;2023-05-11T04:53:31;100204.56;;;15.62;100.00
32733;BME280;11867;51.198;11.966;2023-05-11T04:54:54;100198.75;;;15.63;100.00
32733;BME280;11867;51.198;11.966;2023-05-11T04:56:15;100202.97;;;15.69;100.00
32733;BME280;11867;51.198;11.966;2023-05-11T04:57:38;100206.34;;;15.66;100.00
32733;BME280;11867;51.198;11.966;2023-05-11T04:59:00;100202.97;;;15.69;100.00
32733;BME280;11867;51.198;11.966;2023-05-11T05:00:26;100204.59;;;15.70;100.00
32733;BME280;11867;51.198;11.966;2023-05-11T05:01:48;100198.84;;;15.81;100.00
32733;BME280;11867;51.198;11.966;2023-05-11T05:03:11;100206.47;;;15.84;100.00
32733;BME280;11867;51.198;11.966;2023-05-11T05:04:34;100203.03;;;15.78;100.00
32733;BME280;11867;51.198;11.966;2023-05-11T05:05:57;100202.53;;;15.76;100.00
32733;BME280;11867;51.198;11.966;2023-05-11T05:07:21;100200.28;;;15.78;100.00
32733;BME280;11867;51.198;11.966;2023-05-11T05:08:44;100205.97;;;15.82;100.00
32733;BME280;11867;51.198;11.966;2023-05-11T05:10:07;100203.38;;;15.85;100.00
32733;BME280;11867;51.198;11.966;2023-05-11T05:11:29;100200.13;;;15.83;100.00
32733;BME280;11867;51.198;11.966;2023-05-11T05:12:52;100205.28;;;15.76;100.00
32733;BME280;11867;51.198;11.966;2023-05-11T05:14:14;100207.38;;;15.79;100.00
32733;BME280;11867;51.198;11.966;2023-05-11T05:15:37;100202.75;;;15.88;100.00
32733;BME280;11867;51.198;11.966;2023-05-11T05:17:00;100200.31;;;15.96;99.71
32733;BME280;11867;51.198;11.966;2023-05-11T05:18:23;100201.59;;;15.89;100.00
32733;BME280;11867;51.198;11.966;2023-05-11T05:19:46;100208.06;;;15.93;100.00
32733;BME280;11867;51.198;11.966;2023-05-11T05:21:08;100206.16;;;15.94;100.00
32733;BME280;11867;51.198;11.966;2023-05-11T05:22:32;100208.56;;;15.96;100.00
32733;BME280;11867;51.198;11.966;2023-05-11T05:23:55;100206.78;;;16.00;100.00
32733;BME280;11867;51.198;11.966;2023-05-11T05:25:18;100206.66;;;15.96;100.00
32733;BME280;11867;51.198;11.966;2023-05-11T05:26:42;100206.91;;;15.77;100.00
32733;BME280;11867;51.198;11.966;2023-05-11T05:28:05;100208.69;;;15.42;100.00
32733;BME280;11867;51.198;11.966;2023-05-11T05:29:27;100211.00;;;15.48;100.00
32733;BME280;11867;51.198;11.966;2023-05-11T05:30:49;100201.50;;;15.63;100.00
32733;BME280;11867;51.198;11.966;2023-05-11T05:32:12;100201.88;;;15.79;100.00
32733;BME280;11867;51.198;11.966;2023-05-11T05:33:35;100207.25;;;15.84;100.00
32733;BME280;11867;51.198;11.966;2023-05-11T05:34:58;100211.44;;;15.73;100.00
32733;BME280;11867;51.198;11.966;2023-05-11T05:36:20;100208.53;;;15.78;100.00
32733;BME280;11867;51.198;11.966;2023-05-11T05:37:44;100211.63;;;15.85;100.00
32733;BME280;11867;51.198;11.966;2023-05-11T05:39:07;100213.56;;;15.93;100.00
32733;BME280;11867;51.198;11.966;2023-05-11T05:40:30;100218.28;;;16.02;100.00
32733;BME280;11867;51.198;11.966;2023-05-11T05:41:53;100217.47;;;15.92;100.00
32733;BME280;11867;51.198;11.966;2023-05-11T05:43:16;100215.03;;;16.00;100.00
32733;BME280;11867;51.198;11.966;2023-05-11T05:44:39;100209.72;;;16.03;100.00
32733;BME280;11867;51.198;11.966;2023-05-11T05:46:01;100211.16;;;15.92;100.00
32733;BME280;11867;51.198;11.966;2023-05-11T05:47:24;100212.78;;;16.02;100.00
32733;BME280;11867;51.198;11.966;2023-05-11T05:48:47;100216.19;;;15.99;100.00
32733;BME280;11867;51.198;11.966;2023-05-11T05:50:10;100215.88;;;16.00;100.00
32733;BME280;11867;51.198;11.966;2023-05-11T05:51:33;100214.53;;;15.89;100.00
32733;BME280;11867;51.198;11.966;2023-05-11T05:52:57;100217.78;;;16.00;100.00
32733;BME280;11867;51.198;11.966;2023-05-11T05:54:20;100220.53;;;16.00;100.00
32733;BME280;11867;51.198;11.966;2023-05-11T05:55:43;100223.97;;;16.05;100.00
32733;BME280;11867;51.198;11.966;2023-05-11T05:57:06;100216.03;;;16.04;100.00
32733;BME280;11867;51.198;11.966;2023-05-11T05:58:28;100218.78;;;16.04;100.00
32733;BME280;11867;51.198;11.966;2023-05-11T05:59:51;100224.28;;;16.04;100.00
32733;BME280;11867;51.198;11.966;2023-05-11T06:01:14;100226.72;;;16.05;100.00
32733;BME280;11867;51.198;11.966;2023-05-11T06:02:37;100225.41;;;16.03;100.00
32733;BME280;11867;51.198;11.966;2023-05-11T06:04:00;100224.94;;;16.09;100.00
32733;BME280;11867;51.198;11.966;2023-05-11T06:05:23;100216.56;;;16.23;100.00
32733;BME280;11867;51.198;11.966;2023-05-11T06:06:46;100225.13;;;16.22;100.00
32733;BME280;11867;51.198;11.966;2023-05-11T06:08:09;100229.81;;;16.21;100.00
32733;BME280;11867;51.198;11.966;2023-05-11T06:09:33;100225.31;;;16.25;100.00
32733;BME280;11867;51.198;11.966;2023-05-11T06:10:59;100224.81;;;16.23;100.00
32733;BME280;11867;51.198;11.966;2023-05-11T06:12:22;100230.00;;;16.25;100.00
32733;BME280;11867;51.198;11.966;2023-05-11T06:13:45;100219.00;;;16.33;100.00
32733;BME280;11867;51.198;11.966;2023-05-11T06:15:08;100221.25;;;16.31;100.00
32733;BME280;11867;51.198;11.966;2023-05-11T06:16:31;100223.03;;;16.27;100.00
32733;BME280;11867;51.198;11.966;2023-05-11T06:17:54;100227.75;;;16.27;100.00
32733;BME280;11867;51.198;11.966;2023-05-11T06:19:17;100225.63;;;16.32;100.00
32733;BME280;11867;51.198;11.966;2023-05-11T06:20:40;100222.25;;;16.44;99.97
32733;BME280;11867;51.198;11.966;2023-05-11T06:22:03;100218.69;;;16.44;99.89
32733;BME280;11867;51.198;11.966;2023-05-11T06:23:28;100224.34;;;16.39;100.00
32733;BME280;11867;51.198;11.966;2023-05-11T06:24:51;100225.63;;;16.32;100.00
32733;BME280;11867;51.198;11.966;2023-05-11T06:26:14;100222.56;;;16.25;100.00
32733;BME280;11867;51.198;11.966;2023-05-11T06:27:36;100222.38;;;16.30;100.00
32733;BME280;11867;51.198;11.966;2023-05-11T06:28:59;100221.25;;;16.40;100.00
32733;BME280;11867;51.198;11.966;2023-05-11T06:30:22;100213.66;;;16.54;100.00
32733;BME280;11867;51.198;11.966;2023-05-11T06:31:45;100219.31;;;16.49;100.00
32733;BME280;11867;51.198;11.966;2023-05-11T06:33:09;100221.13;;;16.54;100.00
32733;BME280;11867;51.198;11.966;2023-05-11T06:34:32;100216.06;;;16.47;100.00
32733;BME280;11867;51.198;11.966;2023-05-11T06:35:55;100217.69;;;16.57;100.00
32733;BME280;11867;51.198;11.966;2023-05-11T06:37:18;100220.47;;;16.57;100.00
32733;BME280;11867;51.198;11.966;2023-05-11T06:38:43;100219.81;;;16.43;100.00
32733;BME280;11867;51.198;11.966;2023-05-11T06:40:06;100216.25;;;16.51;100.00
32733;BME280;11867;51.198;11.966;2023-05-11T06:41:29;100212.38;;;16.52;100.00
32733;BME280;11867;51.198;11.966;2023-05-11T06:42:52;100218.53;;;16.66;99.93
32733;BME280;11867;51.198;11.966;2023-05-11T06:44:14;100213.16;;;16.70;99.98
32733;BME280;11867;51.198;11.966;2023-05-11T06:45:37;100214.47;;;16.72;99.73
32733;BME280;11867;51.198;11.966;2023-05-11T06:47:02;100215.59;;;16.71;99.43
32733;BME280;11867;51.198;11.966;2023-05-11T06:48:25;100211.41;;;16.48;100.00
32733;BME280;11867;51.198;11.966;2023-05-11T06:49:50;100212.34;;;16.26;100.00
32733;BME280;11867;51.198;11.966;2023-05-11T06:51:13;100213.97;;;16.62;100.00
32733;BME280;11867;51.198;11.966;2023-05-11T06:52:36;100209.59;;;16.69;100.00
32733;BME280;11867;51.198;11.966;2023-05-11T06:54:00;100209.59;;;16.69;99.69
32733;BME280;11867;51.198;11.966;2023-05-11T06:55:23;100216.72;;;16.79;99.65
32733;BME280;11867;51.198;11.966;2023-05-11T06:56:48;100218.38;;;16.89;99.31
32733;BME280;11867;51.198;11.966;2023-05-11T06:58:11;100216.88;;;17.00;98.58
32733;BME280;11867;51.198;11.966;2023-05-11T06:59:33;100212.53;;;16.64;99.60
32733;BME280;11867;51.198;11.966;2023-05-11T07:00:56;100210.09;;;16.19;100.00
32733;BME280;11867;51.198;11.966;2023-05-11T07:02:19;100216.63;;;15.83;100.00
32733;BME280;11867;51.198;11.966;2023-05-11T07:03:41;100218.88;;;15.41;100.00
32733;BME280;11867;51.198;11.966;2023-05-11T07:05:04;100218.78;;;15.24;100.00
32733;BME280;11867;51.198;11.966;2023-05-11T07:06:27;100211.03;;;15.66;100.00
32733;BME280;11867;51.198;11.966;2023-05-11T07:07:50;100212.78;;;15.93;100.00
32733;BME280;11867;51.198;11.966;2023-05-11T07:09:14;100213.81;;;16.32;100.00
32733;BME280;11867;51.198;11.966;2023-05-11T07:10:37;100211.22;;;16.53;100.00
32733;BME280;11867;51.198;11.966;2023-05-11T07:12:00;100216.09;;;16.82;100.00